Time;durP1;ratioP1;P1;durP2;ratioP2;P2;SDS_P1;SDS_P2;PMS_P1;PMS_P2;Temp;Humidity;BMP_temperature;BMP_pressure;BME280_temperature;BME280_humidity;BME280_pressure;Samples;Min_cycle;Max_cycle;Signal;HPM_P1;HPM_P2
2021/06/14 00:03:25;;;;;;;4.53;1.60;;;16.20;99.90;;;;;;20909907;28;20053;-75
2021/06/14 00:13:28;;;;;;;3.33;1.90;;;16.30;99.90;;;;;;20909075;28;20135;-75
2021/06/14 00:23:30;;;;;;;4.10;2.10;;;15.80;99.90;;;;;;20890949;28;20126;-75
2021/06/14 00:33:31;;;;;;;6.97;2.40;;;15.30;99.90;;;;;;20908845;28;20039;-75
2021/06/14 00:43:34;;;;;;;3.33;2.05;;;15.20;99.90;;;;;;20907435;28;20065;-75
2021/06/14 00:53:38;;;;;;;5.88;1.90;;;15.50;99.90;;;;;;20889079;28;20402;-75
2021/06/14 01:03:41;;;;;;;4.18;1.90;;;15.40;99.90;;;;;;20888804;28;20041;-75
2021/06/14 01:14:04;;;;;;;5.10;1.80;;;15.50;99.90;;;;;;20922115;28;20091;-75
2021/06/14 01:24:13;;;;;;;5.47;2.10;;;15.50;99.90;;;;;;20905346;28;20507;-75
2021/06/14 01:34:15;;;;;;;3.25;2.05;;;15.50;99.90;;;;;;20922343;28;20052;-75
2021/06/14 01:44:18;;;;;;;6.25;2.30;;;15.30;99.90;;;;;;20903073;28;20707;-76
2021/06/14 01:54:21;;;;;;;4.72;2.28;;;15.10;99.90;;;;;;20902459;28;20075;-75
2021/06/14 02:04:29;;;;;;;4.43;1.95;;;15.10;99.90;;;;;;20919256;28;20048;-76
2021/06/14 02:14:47;;;;;;;5.82;1.80;;;15.10;99.90;;;;;;20900978;28;20044;-75
2021/06/14 02:24:49;;;;;;;4.13;1.92;;;15.00;99.90;;;;;;20898560;28;20526;-76
2021/06/14 02:34:54;;;;;;;2.22;1.88;;;14.90;99.90;;;;;;20899586;28;20048;-75
2021/06/14 02:44:55;;;;;;;4.03;2.00;;;14.40;99.90;;;;;;20916651;28;20064;-75
2021/06/14 02:55:01;;;;;;;4.47;1.90;;;14.40;99.90;;;;;;20985983;28;20044;-75
2021/06/14 03:05:04;;;;;;;4.82;1.63;;;14.70;99.90;;;;;;20973757;22;20048;-78
2021/06/14 03:15:06;;;;;;;4.55;2.05;;;14.40;99.90;;;;;;21058818;28;20063;-79
2021/06/14 03:25:08;;;;;;;3.17;1.80;;;14.20;99.90;;;;;;21095559;28;20510;-79
2021/06/14 03:35:16;;;;;;;5.18;1.98;;;14.20;99.90;;;;;;21110167;28;20059;-79
2021/06/14 03:45:17;;;;;;;3.97;2.05;;;14.10;99.90;;;;;;21105857;28;20115;-81
2021/06/14 03:55:19;;;;;;;2.95;1.95;;;14.20;99.90;;;;;;21083912;28;20447;-83
2021/06/14 04:05:20;;;;;;;4.47;2.28;;;14.30;99.90;;;;;;21091024;28;20085;-83
2021/06/14 04:15:23;;;;;;;4.60;2.10;;;14.60;99.90;;;;;;21091995;28;20530;-84
2021/06/14 04:25:25;;;;;;;5.37;2.20;;;14.20;99.90;;;;;;21066483;28;20043;-81
2021/06/14 04:35:26;;;;;;;5.77;1.80;;;14.50;99.90;;;;;;21081158;28;20064;-79
2021/06/14 04:45:27;;;;;;;4.60;1.70;;;14.60;99.90;;;;;;20986745;28;20033;-79
2021/06/14 04:55:28;;;;;;;4.70;2.00;;;15.00;99.90;;;;;;20894939;28;20044;-79
2021/06/14 05:05:29;;;;;;;5.65;2.05;;;15.10;99.90;;;;;;20885198;28;131541;-77
2021/06/14 05:15:30;;;;;;;4.27;1.93;;;15.20;99.90;;;;;;20903675;28;20033;-77
2021/06/14 05:25:32;;;;;;;4.33;1.70;;;15.60;99.90;;;;;;20906626;28;20048;-77
2021/06/14 05:35:35;;;;;;;5.18;2.22;;;15.90;99.90;;;;;;20906054;28;20048;-77
2021/06/14 05:45:36;;;;;;;5.75;2.22;;;16.20;99.90;;;;;;20916410;28;20037;-78
2021/06/14 05:55:36;;;;;;;3.67;2.10;;;16.60;99.90;;;;;;20938112;28;20044;-78
2021/06/14 06:05:37;;;;;;;6.93;2.87;;;17.00;99.90;;;;;;20932425;28;20048;-78
2021/06/14 06:15:38;;;;;;;10.93;2.00;;;17.10;99.90;;;;;;20930958;28;20044;-78
2021/06/14 06:25:39;;;;;;;4.10;1.73;;;17.50;99.90;;;;;;20932399;28;20037;-78
2021/06/14 06:35:40;;;;;;;5.20;1.57;;;17.90;99.90;;;;;;20910560;28;20136;-78
2021/06/14 06:45:42;;;;;;;8.13;2.30;;;18.60;99.90;;;;;;20931988;28;20124;-79
2021/06/14 06:55:43;;;;;;;6.57;2.15;;;18.70;99.90;;;;;;20932434;28;20040;-78
2021/06/14 07:05:46;;;;;;;4.87;1.73;;;19.00;99.90;;;;;;20935482;28;20095;-79
2021/06/14 07:15:47;;;;;;;6.05;1.92;;;19.20;99.90;;;;;;20937081;28;20037;-78
2021/06/14 07:25:48;;;;;;;4.07;1.77;;;19.90;99.90;;;;;;20938320;28;20044;-79
2021/06/14 07:35:49;;;;;;;2.90;1.60;;;20.30;99.90;;;;;;20918186;28;20045;-79
2021/06/14 07:45:50;;;;;;;10.73;1.73;;;21.20;99.90;;;;;;20943032;28;20056;-78
2021/06/14 07:55:52;;;;;;;;;;;21.90;99.90;;;;;;20931156;28;20083;-79
2021/06/14 08:05:53;;;;;;;3.05;1.30;;;22.20;99.90;;;;;;20895075;28;20294;-78
2021/06/14 08:15:54;;;;;;;4.70;2.53;;;22.90;99.90;;;;;;20927895;28;20065;-79
2021/06/14 08:25:55;;;;;;;;;;;22.90;99.90;;;;;;20912769;28;20606;-79
2021/06/14 08:35:56;;;;;;;6.70;1.90;;;23.30;99.90;;;;;;20927668;28;19909;-79
2021/06/14 08:45:57;;;;;;;6.33;1.90;;;24.00;99.90;;;;;;20913782;28;20406;-79
2021/06/14 08:55:58;;;;;;;6.22;1.60;;;24.40;99.90;;;;;;20930035;28;20041;-78
2021/06/14 09:05:59;;;;;;;2.87;1.67;;;24.90;99.90;;;;;;20956229;28;20068;-79
2021/06/14 09:16:08;;;;;;;6.53;1.83;;;25.60;99.90;;;;;;20948301;28;20119;-79
2021/06/14 09:26:28;;;;;;;2.22;1.30;;;25.90;99.90;;;;;;20949913;28;20112;-79
2021/06/14 09:36:30;;;;;;;4.18;1.70;;;26.40;99.90;;;;;;20979829;28;20049;-77
2021/06/14 09:46:32;;;;;;;5.32;1.90;;;26.20;99.90;;;;;;20960869;28;20041;-79
2021/06/14 09:56:37;;;;;;;2.90;1.52;;;26.50;99.90;;;;;;20974865;28;20131;-78
2021/06/14 10:06:43;;;;;;;2.55;1.20;;;27.30;99.90;;;;;;20954351;28;20059;-80
2021/06/14 10:16:47;;;;;;;3.28;1.33;;;27.60;99.20;;;;;;20968219;28;20048;-80
2021/06/14 10:26:54;;;;;;;3.20;1.48;;;28.10;99.90;;;;;;20951419;28;20045;-78
2021/06/14 10:36:56;;;;;;;5.30;1.50;;;28.40;96.70;;;;;;20968164;28;20037;-80
2021/06/14 10:46:57;;;;;;;7.25;1.50;;;28.30;98.20;;;;;;20971596;28;20049;-80
2021/06/14 10:57:07;;;;;;;4.78;1.35;;;28.50;96.50;;;;;;20963974;28;20068;-80
2021/06/14 11:07:08;;;;;;;2.97;1.52;;;29.10;94.70;;;;;;20966703;28;20094;-80
2021/06/14 11:17:15;;;;;;;5.47;2.10;;;29.10;94.40;;;;;;20962531;28;20049;-80
2021/06/14 11:27:16;;;;;;;5.80;1.83;;;29.20;95.00;;;;;;20955632;28;20041;-79
2021/06/14 11:37:17;;;;;;;5.28;1.52;;;29.60;94.40;;;;;;20911812;28;20057;-79
2021/06/14 11:47:21;;;;;;;1.98;1.30;;;30.00;91.50;;;;;;20965636;28;20068;-80
2021/06/14 11:57:33;;;;;;;3.10;1.73;;;30.10;91.30;;;;;;20944040;28;20029;-80
2021/06/14 12:07:38;;;;;;;1.90;1.40;;;30.00;91.70;;;;;;20948103;28;20041;-79
2021/06/14 12:17:43;;;;;;;4.43;1.30;;;30.20;90.00;;;;;;20967960;28;20041;-78
2021/06/14 12:27:44;;;;;;;2.08;1.00;;;30.50;90.10;;;;;;20966948;28;20032;-80
2021/06/14 12:37:45;;;;;;;3.20;1.27;;;30.90;84.60;;;;;;20957972;28;20059;-80
2021/06/14 12:47:51;;;;;;;2.35;1.20;;;30.90;85.10;;;;;;20934866;28;20040;-80
2021/06/14 12:57:56;;;;;;;3.30;1.13;;;30.50;80.20;;;;;;20920801;28;20052;-80
2021/06/14 13:08:07;;;;;;;5.88;1.40;;;30.80;79.50;;;;;;20957705;28;20048;-78
2021/06/14 13:18:10;;;;;;;4.07;1.08;;;30.90;83.50;;;;;;20962757;28;20037;-78
2021/06/14 13:28:34;;;;;;;4.55;1.60;;;30.90;82.90;;;;;;20954633;28;20043;-80
2021/06/14 13:38:35;;;;;;;3.42;1.20;;;31.20;81.70;;;;;;20922450;28;20096;-79
2021/06/14 13:48:41;;;;;;;3.70;1.20;;;31.20;78.60;;;;;;20950425;28;20040;-80
2021/06/14 13:58:43;;;;;;;4.43;0.88;;;31.30;78.60;;;;;;20958166;28;20052;-79
2021/06/14 14:08:44;;;;;;;2.58;1.08;;;31.20;83.80;;;;;;20930729;28;20144;-78
2021/06/14 14:18:45;;;;;;;2.33;0.73;;;30.50;80.00;;;;;;20911862;28;20040;-80
2021/06/14 14:28:47;;;;;;;2.15;0.80;;;31.30;78.80;;;;;;20938918;28;20399;-81
2021/06/14 14:38:56;;;;;;;2.03;1.20;;;31.40;80.40;;;;;;20926520;28;20048;-80
2021/06/14 14:49:02;;;;;;;3.17;0.80;;;31.50;78.40;;;;;;20999201;28;20104;-79
2021/06/14 14:59:05;;;;;;;0.85;0.50;;;31.70;75.90;;;;;;20969229;28;20048;-79
2021/06/14 15:09:07;;;;;;;1.38;0.80;;;30.90;75.90;;;;;;20978082;23;20055;-76
2021/06/14 15:19:08;;;;;;;3.15;1.00;;;30.90;77.00;;;;;;20974590;28;20082;-77
2021/06/14 15:29:09;;;;;;;1.33;0.77;;;31.20;77.00;;;;;;20929966;28;20032;-76
2021/06/14 15:39:10;;;;;;;1.67;0.80;;;30.60;75.60;;;;;;20927854;28;20048;-77
2021/06/14 15:49:11;;;;;;;4.38;0.90;;;30.70;77.70;;;;;;20874832;28;20048;-77
2021/06/14 15:59:11;;;;;;;3.33;0.90;;;30.70;80.80;;;;;;20962429;28;20036;-78
2021/06/14 16:09:13;;;;;;;9.65;1.20;;;30.40;77.00;;;;;;20973870;28;20037;-76
2021/06/14 16:19:13;;;;;;;2.13;0.90;;;30.30;75.60;;;;;;20972919;28;20762;-77
2021/06/14 16:29:14;;;;;;;2.90;0.70;;;30.10;81.20;;;;;;20953925;28;20037;-76
2021/06/14 16:39:16;;;;;;;2.17;0.88;;;30.00;78.70;;;;;;20935596;28;20040;-76
2021/06/14 16:49:17;;;;;;;1.85;0.93;;;29.30;75.80;;;;;;20971461;28;20108;-76
2021/06/14 16:59:20;;;;;;;1.58;0.90;;;29.30;82.90;;;;;;20932214;28;20054;-76
2021/06/14 17:09:21;;;;;;;1.98;1.08;;;29.30;79.40;;;;;;20949105;28;20678;-76
2021/06/14 17:19:22;;;;;;;4.25;1.00;;;29.30;79.00;;;;;;20948495;28;20036;-76
2021/06/14 17:29:22;;;;;;;3.58;1.10;;;28.80;81.70;;;;;;20968087;28;20040;-76
2021/06/14 17:39:23;;;;;;;3.08;1.30;;;28.50;92.30;;;;;;20923979;28;20120;-76
2021/06/14 17:49:25;;;;;;;3.92;1.00;;;28.20;85.50;;;;;;20887751;28;20077;-77
2021/06/14 17:59:26;;;;;;;2.92;1.00;;;27.70;92.60;;;;;;20880567;28;20041;-76
2021/06/14 18:09:29;;;;;;;2.30;1.38;;;28.30;96.70;;;;;;20934720;28;20103;-76
2021/06/14 18:19:30;;;;;;;4.25;1.10;;;28.40;96.40;;;;;;20982856;28;20040;-76
2021/06/14 18:29:31;;;;;;;2.90;1.30;;;29.10;98.40;;;;;;20990138;28;20055;-76
2021/06/14 18:39:32;;;;;;;2.75;1.00;;;29.30;98.40;;;;;;20981374;28;20036;-76
2021/06/14 18:49:35;;;;;;;7.85;1.58;;;28.50;97.70;;;;;;20967423;28;20123;-75
2021/06/14 18:59:36;;;;;;;16.95;1.98;;;25.10;99.90;;;;;;20979580;28;20044;-75
2021/06/14 19:09:37;;;;;;;3.30;1.70;;;23.80;99.90;;;;;;20988594;28;20471;-81
2021/06/14 19:19:38;;;;;;;3.67;1.60;;;22.90;99.90;;;;;;20974648;28;20048;-80
2021/06/14 19:29:44;;;;;;;4.27;1.50;;;22.10;99.90;;;;;;20995773;28;20313;-80
2021/06/14 19:39:45;;;;;;;4.68;1.80;;;21.80;99.90;;;;;;20978807;28;20563;-80
2021/06/14 19:49:46;;;;;;;6.95;2.13;;;21.20;99.90;;;;;;20961752;28;20102;-83
2021/06/14 19:59:47;;;;;;;16.53;2.17;;;20.30;99.90;;;;;;20988579;28;20048;-82
2021/06/14 20:09:48;;;;;;;3.63;1.80;;;20.20;99.90;;;;;;20986039;28;20045;-82
2021/06/14 20:19:49;;;;;;;2.10;1.63;;;19.40;99.90;;;;;;21002306;28;20032;-81
2021/06/14 20:29:50;;;;;;;6.83;2.13;;;19.40;99.90;;;;;;21002251;28;20032;-82
2021/06/14 20:39:51;;;;;;;2.23;1.70;;;19.00;99.90;;;;;;20951145;28;20514;-83
2021/06/14 20:49:52;;;;;;;;;;;18.90;99.90;;;;;;20885465;28;20060;-83
2021/06/14 20:59:53;;;;;;;7.37;2.00;;;19.10;99.90;;;;;;20964313;28;19916;-83
2021/06/14 21:09:54;;;;;;;5.20;2.10;;;18.50;99.90;;;;;;21007059;23;20644;-74
2021/06/14 21:19:55;;;;;;;7.33;2.40;;;18.20;99.90;;;;;;21154577;28;20028;-74
2021/06/14 21:29:57;;;;;;;6.20;2.17;;;17.90;99.90;;;;;;21237755;27;20084;-75
2021/06/14 21:39:58;;;;;;;3.83;2.25;;;17.70;99.90;;;;;;21240766;27;20039;-75
2021/06/14 21:49:59;;;;;;;3.30;2.13;;;17.50;99.90;;;;;;21221546;27;20046;-75
2021/06/14 22:00:00;;;;;;;3.53;2.30;;;17.30;99.90;;;;;;21170158;27;20057;-74
2021/06/14 22:10:01;;;;;;;7.77;2.20;;;17.10;99.90;;;;;;21237068;27;20099;-74
2021/06/14 22:20:03;;;;;;;6.53;2.23;;;17.00;99.90;;;;;;21255428;27;20038;-74
2021/06/14 22:30:06;;;;;;;5.78;2.50;;;16.90;99.90;;;;;;21254366;27;20043;-75
2021/06/14 22:40:07;;;;;;;8.43;2.53;;;16.50;99.90;;;;;;21253493;27;20120;-75
2021/06/14 22:50:09;;;;;;;2.83;2.30;;;16.20;99.90;;;;;;21252945;27;20046;-75
2021/06/14 23:00:13;;;;;;;4.22;2.40;;;16.20;99.90;;;;;;21252160;27;20035;-74
2021/06/14 23:10:14;;;;;;;4.78;2.63;;;16.10;99.90;;;;;;21232946;27;20130;-74
2021/06/14 23:20:16;;;;;;;3.90;2.43;;;15.90;99.90;;;;;;21250647;27;20095;-74
2021/06/14 23:30:17;;;;;;;4.07;2.30;;;15.90;99.90;;;;;;21249585;27;20117;-75
2021/06/14 23:40:21;;;;;;;6.15;2.40;;;15.90;99.90;;;;;;21213555;27;20385;-76
2021/06/14 23:50:21;;;;;;;5.05;2.40;;;15.50;99.90;;;;;;21247663;27;20039;-76
